Airfield :
LOGIN :

Register | Disclaimer

   EN    FR    IT 

 










Legend :    VFR   Marginal VFR   IFR   Intensive IFR   Very Intensive IFR
Visi :
Ceiling :
>= 8 km
>= 3000ft
5 to 8 km
1000 to 3000 ft
1500m to 5 km
500 to 1000 ft
800 to 1500m
200 to 500 ft
< 800m
< 200 ft
Symbols :   Thunderstorms  Fog  Heavy snow  Heavy precipitations  Wind > 20 kt
SIGMETs :     Misc.  Thunderstorms  Icing  Turbulence  Mountain Waves  Volcanic Ashes







- Airport Elevation : -15 ft
- IATA code : RTM


EHRD - Rotterdam Zestienhoven

CURRENT METAR :
  • 212225Z AUTO 15003KT 9999 NCD 13/10 Q1018 NOSIG

EXPIRED METARs :
  • 212155Z AUTO 15005KT 9999 NSC 12/10 Q1018 NOSIG
  • 212125Z AUTO 15004KT 9999 NSC 14/10 Q1018 NOSIG
  • 212055Z AUTO 16005KT 9999 NSC 14/10 Q1018 NOSIG
  • 212025Z AUTO 15005KT 9999 NSC 14/10 Q1018 NOSIG
  • 211955Z AUTO 16004KT 120V190 9999 BKN043 14/11 Q1018 NOSIG

TAF TAF EHRD
Valid from the 21 at 18:00 until the 23 at 00:00 UTC


211702Z 2118/2224 15005KT CAVOK
PROB30 2204/2208 4000 BR
PROB40
TEMPO 2206/2211 6000 -RA SCT006 BKN012
BECMG 2209/2212 31008KT
PROB40
TEMPO 2211/2214 6000 -SHRA FEW018CB BKN022
BECMG 2221/2224 VRB03KT 2000 BR MIFG
No reported NOTAMs for that airfield.



MET'MAP, your aeronautical weather chart ! - Copyright ORBIFLY December 2007 - Disclaimer

ORBIFLY MET'MAP TEAM :

Programming & Development : Alexandra Zaïnal
Concept & Development : Baudouin d'Aumeries
Co-Development & Prog : Marc-Olivier Méhu
Technical & hardware support : Manuel Goepfert

Contact : metmap@orbifly.com




SOURCES & CREDITS :

   NOAA